createdAt,value
2022-08-16T00:00:46.676Z,23.5
2022-08-16T00:01:46.661Z,23.3
2022-08-16T00:02:46.526Z,23.4
2022-08-16T00:03:45.746Z,23.5
2022-08-16T00:04:46.296Z,23.6
2022-08-16T00:06:46.195Z,23.9
2022-08-16T00:07:45.760Z,24.2
2022-08-16T00:08:46.012Z,23.7
2022-08-16T00:09:46.157Z,23.7
2022-08-16T00:10:45.768Z,23.9
2022-08-16T00:11:46.024Z,23.7
2022-08-16T00:12:46.081Z,23.5
2022-08-16T00:13:53.433Z,23.7
2022-08-16T00:14:45.932Z,23.4
2022-08-16T00:17:01.375Z,23.5
2022-08-16T00:17:56.558Z,23.7
2022-08-16T00:18:46.653Z,23.7
2022-08-16T00:19:46.502Z,24
2022-08-16T00:20:46.012Z,23.9
2022-08-16T00:21:46.226Z,24.2
2022-08-16T00:22:45.853Z,24.5
2022-08-16T00:23:46.124Z,24.6
2022-08-16T00:24:46.748Z,24.6
2022-08-16T00:26:33.494Z,24.3
2022-08-16T00:26:45.740Z,24.6
2022-08-16T00:27:47.039Z,24.5
2022-08-16T00:28:45.818Z,24.2
2022-08-16T00:29:46.000Z,24
2022-08-16T00:30:45.769Z,23.8
2022-08-16T00:31:59.318Z,23.9
2022-08-16T00:32:46.815Z,24
2022-08-16T00:33:50.174Z,24.2
2022-08-16T00:34:53.815Z,24.4
2022-08-16T00:35:45.749Z,23.9
2022-08-16T00:36:47.261Z,24
2022-08-16T00:37:57.296Z,24.3
2022-08-16T00:38:45.756Z,23.9
2022-08-16T00:39:45.798Z,24.2
2022-08-16T00:40:50.757Z,23.9
2022-08-16T00:41:45.801Z,24.1
2022-08-16T00:43:44.837Z,23.5
2022-08-16T00:44:46.283Z,23.4
2022-08-16T00:45:58.126Z,23
2022-08-16T00:46:53.967Z,22.9
2022-08-16T00:47:49.024Z,22.8
2022-08-16T00:48:46.240Z,22.5
2022-08-16T00:49:45.742Z,22.4
2022-08-16T00:50:45.756Z,22.1
2022-08-16T00:51:46.655Z,22.3
2022-08-16T00:52:51.221Z,22.3
2022-08-16T00:53:45.766Z,22.2
2022-08-16T00:54:46.337Z,22.1
2022-08-16T00:55:45.758Z,22
2022-08-16T00:56:56.529Z,22.1
2022-08-16T00:57:59.242Z,22.1
2022-08-16T00:58:45.775Z,21.9
2022-08-16T00:59:58.681Z,22
2022-08-16T01:00:53.858Z,21.8
2022-08-16T01:01:46.232Z,21.8
2022-08-16T01:02:47.014Z,21.7
2022-08-16T01:03:45.770Z,21.6
2022-08-16T01:05:09.643Z,21.3
2022-08-16T01:05:45.774Z,21.3
2022-08-16T01:06:49.316Z,21.4
2022-08-16T01:07:51.833Z,21.4
2022-08-16T01:08:45.773Z,21.4
2022-08-16T01:09:46.352Z,21.3
2022-08-16T01:10:45.019Z,21.3
2022-08-16T01:11:53.908Z,21.2
2022-08-16T01:12:45.881Z,21.1
2022-08-16T01:13:45.747Z,21
2022-08-16T01:14:47.453Z,21.2
2022-08-16T01:15:45.942Z,21.2
2022-08-16T01:16:46.423Z,21.4
2022-08-16T01:17:45.769Z,21.6
2022-08-16T01:18:46.464Z,21.6
2022-08-16T01:19:46.382Z,21.6
2022-08-16T01:20:46.359Z,21.6
2022-08-16T01:21:45.882Z,22
2022-08-16T01:22:49.837Z,22
2022-08-16T01:24:00.835Z,21.7
2022-08-16T01:24:55.388Z,21.9
2022-08-16T01:26:00.293Z,21.6
2022-08-16T01:26:46.301Z,21.7
2022-08-16T01:27:45.799Z,21.4
2022-08-16T01:28:46.276Z,21.5
2022-08-16T01:29:58.092Z,21.4
2022-08-16T01:30:50.023Z,21.1
2022-08-16T01:31:46.229Z,21.1
2022-08-16T01:32:46.509Z,20.9
2022-08-16T01:33:45.937Z,21
2022-08-16T01:34:47.319Z,21.1
2022-08-16T01:35:45.765Z,21.4
2022-08-16T01:36:45.767Z,21.5
2022-08-16T01:38:53.187Z,21.3
2022-08-16T01:39:49.712Z,21.3
2022-08-16T01:40:49.556Z,21.3
2022-08-16T01:41:49.675Z,21.2
2022-08-16T01:42:49.813Z,21.3
2022-08-16T01:43:54.194Z,21.4
2022-08-16T01:44:49.759Z,21.5
2022-08-16T01:45:49.671Z,21.4
2022-08-16T01:46:49.526Z,21.4
2022-08-16T01:47:50.929Z,21.2
2022-08-16T01:48:49.764Z,21.4
2022-08-16T01:50:42.430Z,21.2
2022-08-16T01:51:16.388Z,21.2
2022-08-16T01:51:49.518Z,21.6
2022-08-16T01:52:49.661Z,21.6
2022-08-16T01:53:54.686Z,21.6
2022-08-16T01:54:49.517Z,21.8
2022-08-16T01:55:54.033Z,21.9
2022-08-16T01:56:49.530Z,21.7
2022-08-16T01:57:53.806Z,21.5
2022-08-16T01:58:49.532Z,21.4
2022-08-16T01:59:49.533Z,21.2
2022-08-16T02:00:49.754Z,21.2
2022-08-16T02:01:52.667Z,21.2
2022-08-16T02:02:52.160Z,21.1
2022-08-16T02:03:50.654Z,21.2
2022-08-16T02:04:54.579Z,21.1
2022-08-16T02:05:52.130Z,21
2022-08-16T02:06:49.560Z,21.1
2022-08-16T02:07:49.515Z,21.2
2022-08-16T02:08:51.100Z,21.2
2022-08-16T02:09:57.377Z,21.1
2022-08-16T02:10:49.532Z,21.3
2022-08-16T02:11:53.387Z,21.1
2022-08-16T02:12:52.594Z,21.3
2022-08-16T02:13:49.522Z,21.1
2022-08-16T02:14:49.522Z,20.9
2022-08-16T02:15:49.576Z,20.8
2022-08-16T02:16:49.551Z,20.8
2022-08-16T02:17:49.534Z,20.8
2022-08-16T02:18:49.529Z,20.6
2022-08-16T02:19:58.525Z,20.5
2022-08-16T02:20:49.528Z,20.5
2022-08-16T02:22:08.297Z,20.3
2022-08-16T02:22:49.698Z,20.2
2022-08-16T02:23:49.528Z,20.3
2022-08-16T02:24:49.548Z,20.4
2022-08-16T02:25:52.923Z,20.3
2022-08-16T02:27:50.892Z,20.4
2022-08-16T02:28:49.532Z,20.8
2022-08-16T02:29:49.529Z,21
2022-08-16T02:30:51.711Z,21
2022-08-16T02:32:04.069Z,20.6
2022-08-16T02:32:51.705Z,20.6
2022-08-16T02:33:50.177Z,20.7
2022-08-16T02:34:50.372Z,20.8
2022-08-16T02:35:54.146Z,20.8
2022-08-16T02:36:50.580Z,20.9
2022-08-16T02:37:52.185Z,21
2022-08-16T02:38:49.539Z,21.2
2022-08-16T02:39:53.804Z,21.1
2022-08-16T02:40:49.530Z,21.2
2022-08-16T02:41:53.043Z,21.2
2022-08-16T02:42:49.600Z,21.2
2022-08-16T02:43:49.536Z,21.2
2022-08-16T02:44:49.545Z,21.2
2022-08-16T02:45:49.525Z,20.9
2022-08-16T02:46:50.439Z,20.8
2022-08-16T02:48:00.703Z,20.8
2022-08-16T02:48:49.556Z,20.8
2022-08-16T02:49:59.188Z,20.7
2022-08-16T02:50:54.004Z,20.6
2022-08-16T02:51:50.090Z,20.8
2022-08-16T02:52:49.783Z,20.8
2022-08-16T02:53:49.530Z,20.6
2022-08-16T02:54:55.734Z,20.7
2022-08-16T02:55:50.399Z,20.8
2022-08-16T02:56:49.547Z,20.8
2022-08-16T02:57:53.881Z,20.8
2022-08-16T02:58:49.539Z,20.7
2022-08-16T02:59:49.554Z,20.4
2022-08-16T03:00:50.094Z,20.3
2022-08-16T03:01:49.784Z,20.4
2022-08-16T03:02:49.609Z,20.4
2022-08-16T03:04:40.608Z,20.3
2022-08-16T03:04:52.186Z,20.4
2022-08-16T03:05:50.035Z,20.2
2022-08-16T03:06:50.451Z,20.2
2022-08-16T03:07:50.956Z,20.2
2022-08-16T03:08:53.213Z,20
2022-08-16T03:09:49.552Z,20.2
2022-08-16T03:10:49.569Z,20.8
2022-08-16T03:11:49.545Z,20.9
2022-08-16T03:12:55.282Z,20.6
2022-08-16T03:13:51.235Z,21.3
2022-08-16T03:14:49.537Z,21.2
2022-08-16T03:15:49.788Z,21.3
2022-08-16T03:16:58.492Z,21.1
2022-08-16T03:17:53.268Z,21.6
2022-08-16T03:18:49.558Z,21.8
2022-08-16T03:19:59.360Z,21.3
2022-08-16T03:20:55.868Z,21
2022-08-16T03:21:51.814Z,21.1
2022-08-16T03:22:49.563Z,20.6
2022-08-16T03:23:49.560Z,20.4
2022-08-16T03:24:49.563Z,20.5
2022-08-16T03:25:49.548Z,20.2
2022-08-16T03:26:49.552Z,20.3
2022-08-16T03:27:49.562Z,20.2
2022-08-16T03:28:49.550Z,20
2022-08-16T03:30:49.534Z,20
2022-08-16T03:31:52.428Z,19.8
2022-08-16T03:32:49.568Z,19.6
2022-08-16T03:33:52.165Z,19.5
2022-08-16T03:34:49.803Z,19.4
2022-08-16T03:35:49.539Z,19.4
2022-08-16T03:36:49.565Z,19.6
2022-08-16T03:38:03.155Z,19.7
2022-08-16T03:38:49.542Z,19.7
2022-08-16T03:39:49.566Z,19.7
2022-08-16T03:40:49.559Z,19.8
2022-08-16T03:41:50.149Z,20.2
2022-08-16T03:43:19.213Z,20.5
2022-08-16T03:43:51.121Z,20.4
2022-08-16T03:44:49.807Z,20.2
2022-08-16T03:45:49.565Z,20.1
2022-08-16T03:46:50.096Z,20
2022-08-16T03:47:49.541Z,20
2022-08-16T03:48:49.565Z,19.8
2022-08-16T03:49:51.954Z,19.7
2022-08-16T03:50:59.986Z,19.7
2022-08-16T03:51:49.566Z,19.7
2022-08-16T03:52:49.787Z,19.7
2022-08-16T03:54:00.681Z,19.7
2022-08-16T03:54:57.577Z,19.4
2022-08-16T03:55:49.569Z,19.5
2022-08-16T03:56:57.678Z,19.6
2022-08-16T03:57:52.306Z,19.7
2022-08-16T03:58:50.973Z,19.9
2022-08-16T03:59:50.962Z,20
2022-08-16T04:00:56.698Z,19.6
2022-08-16T04:01:49.551Z,19.4
2022-08-16T04:02:49.641Z,19.5
2022-08-16T04:03:49.914Z,19.5
2022-08-16T04:04:49.557Z,19.6
2022-08-16T04:05:49.581Z,19.4
2022-08-16T04:06:49.553Z,19.2
2022-08-16T04:07:49.555Z,19.7
2022-08-16T04:08:49.556Z,20
2022-08-16T04:09:49.608Z,20.5
2022-08-16T04:10:49.560Z,20.7
2022-08-16T04:11:49.577Z,20.9
2022-08-16T04:12:53.705Z,20.6
2022-08-16T04:14:00.468Z,20.3
2022-08-16T04:14:49.584Z,20.6
2022-08-16T04:15:49.562Z,20.3
2022-08-16T04:16:49.567Z,20.1
2022-08-16T04:17:49.589Z,20.3
2022-08-16T04:18:49.555Z,20.6
2022-08-16T04:19:51.577Z,21.2
2022-08-16T04:20:49.557Z,21.3
2022-08-16T04:21:49.548Z,21.3
2022-08-16T04:22:49.647Z,21.2
2022-08-16T04:23:49.569Z,21.1
2022-08-16T04:24:54.049Z,20.5
2022-08-16T04:25:49.557Z,20.7
2022-08-16T04:26:49.885Z,21
2022-08-16T04:27:54.292Z,21
2022-08-16T04:28:53.567Z,21
2022-08-16T04:29:52.374Z,20.7
2022-08-16T04:30:50.505Z,20.7
2022-08-16T04:31:56.836Z,20.4
2022-08-16T04:32:49.979Z,20.4
2022-08-16T04:33:51.241Z,20.3
2022-08-16T04:34:49.575Z,20.2
2022-08-16T04:35:49.818Z,20.2
2022-08-16T04:36:49.570Z,20
2022-08-16T04:37:54.056Z,19.9
2022-08-16T04:38:49.943Z,19.9
2022-08-16T04:39:55.426Z,19.6
2022-08-16T04:40:50.082Z,19.4
2022-08-16T04:41:49.566Z,19.6
2022-08-16T04:42:49.883Z,19.3
2022-08-16T04:43:49.602Z,19.1
2022-08-16T04:44:53.547Z,19
2022-08-16T04:46:00.388Z,18.9
2022-08-16T04:47:02.815Z,19
2022-08-16T04:47:49.565Z,18.8
2022-08-16T04:48:49.576Z,18.8
2022-08-16T04:49:49.570Z,18.9
2022-08-16T04:50:49.581Z,18.8
2022-08-16T04:51:54.567Z,18.8
2022-08-16T04:52:49.797Z,19.6
2022-08-16T04:53:49.575Z,19.6
2022-08-16T04:54:49.579Z,19.9
2022-08-16T04:55:53.468Z,19.9
2022-08-16T04:56:50.325Z,20
2022-08-16T04:57:53.559Z,20
2022-08-16T04:58:49.564Z,20.2
2022-08-16T04:59:49.569Z,20.2
2022-08-16T05:00:49.560Z,20.1
2022-08-16T05:01:58.495Z,19.8
2022-08-16T05:02:50.975Z,20.1
2022-08-16T05:04:00.248Z,20.2
2022-08-16T05:04:49.579Z,20.1
2022-08-16T05:05:59.396Z,20.2
2022-08-16T05:06:49.586Z,20.3
2022-08-16T05:07:58.276Z,20.5
2022-08-16T05:08:49.586Z,20.5
2022-08-16T05:09:49.604Z,20.4
2022-08-16T05:10:49.569Z,20.6
2022-08-16T05:11:49.594Z,20.8
2022-08-16T05:12:49.763Z,21
2022-08-16T05:13:49.578Z,20.8
2022-08-16T05:15:01.791Z,20.8
2022-08-16T05:15:49.710Z,20.9
2022-08-16T05:16:52.077Z,20.6
2022-08-16T05:17:55.507Z,20.5
2022-08-16T05:18:49.574Z,20.5
2022-08-16T05:19:58.368Z,20.4
2022-08-16T05:21:01.464Z,20.5
2022-08-16T05:21:49.586Z,20.6
2022-08-16T05:22:49.690Z,20.5
2022-08-16T05:23:49.625Z,20.4
2022-08-16T05:24:49.585Z,20.5
2022-08-16T05:25:49.594Z,20.5
2022-08-16T05:26:51.595Z,20.5
2022-08-16T05:27:49.606Z,20.5
2022-08-16T05:28:55.339Z,20.4
2022-08-16T05:30:00.863Z,20.3
2022-08-16T05:30:50.260Z,20.4
2022-08-16T05:31:53.236Z,20.5
2022-08-16T05:32:49.796Z,20.6
2022-08-16T05:33:53.648Z,20.7
2022-08-16T05:34:49.586Z,20.4
2022-08-16T05:35:54.584Z,20.5
2022-08-16T05:36:51.188Z,20.8
2022-08-16T05:37:49.575Z,21
2022-08-16T05:38:49.585Z,21.2
2022-08-16T05:39:49.642Z,21.4
2022-08-16T05:40:57.272Z,21.7
2022-08-16T05:41:51.970Z,21.7
2022-08-16T05:42:49.690Z,21.8
2022-08-16T05:43:49.569Z,22
2022-08-16T05:44:49.596Z,21.9
2022-08-16T05:45:50.881Z,21.8
2022-08-16T05:46:49.591Z,21.8
2022-08-16T05:48:54.889Z,21.7
2022-08-16T05:49:50.648Z,21.5
2022-08-16T05:50:53.139Z,21.5
2022-08-16T05:51:49.607Z,21.9
2022-08-16T05:52:49.593Z,21.8
2022-08-16T05:53:49.587Z,21.8
2022-08-16T05:55:00.897Z,21.7
2022-08-16T05:55:49.583Z,21.4
2022-08-16T05:56:56.186Z,21.5
2022-08-16T05:57:52.362Z,21.6
2022-08-16T05:58:49.588Z,21.6
2022-08-16T05:59:50.756Z,21.7
2022-08-16T06:00:49.586Z,21.8
2022-08-16T06:01:49.637Z,21.8
2022-08-16T06:02:50.141Z,21.7
2022-08-16T06:03:49.582Z,22.2
2022-08-16T06:04:49.591Z,22
2022-08-16T06:05:49.595Z,21.9
2022-08-16T06:06:56.025Z,21.9
2022-08-16T06:07:58.398Z,21.8
2022-08-16T06:08:49.587Z,21.9
2022-08-16T06:09:49.598Z,21.8
2022-08-16T06:11:05.630Z,21.9
2022-08-16T06:11:49.606Z,21.8
2022-08-16T06:12:53.820Z,21.9
2022-08-16T06:13:49.579Z,22.3
2022-08-16T06:14:49.594Z,22.3
2022-08-16T06:15:49.610Z,22.5
2022-08-16T06:16:50.902Z,22.4
2022-08-16T06:17:51.655Z,22.6
2022-08-16T06:18:49.591Z,22.6
2022-08-16T06:19:49.597Z,22.6
2022-08-16T06:20:51.692Z,22.6
2022-08-16T06:21:55.154Z,22.6
2022-08-16T06:22:57.607Z,22.6
2022-08-16T06:23:49.598Z,22.6
2022-08-16T06:24:54.376Z,22.6
2022-08-16T06:25:53.090Z,22.4
2022-08-16T06:26:57.468Z,22.5
2022-08-16T06:27:57.330Z,22.5
2022-08-16T06:28:49.597Z,22.6
2022-08-16T06:29:49.971Z,22.6
2022-08-16T06:30:49.593Z,22.8
2022-08-16T06:31:49.590Z,22.9
2022-08-16T06:32:49.884Z,22.9
2022-08-16T06:33:49.598Z,23
2022-08-16T06:34:57.245Z,22.8
2022-08-16T06:35:49.598Z,22.9
2022-08-16T06:36:49.595Z,23
2022-08-16T06:37:51.382Z,22.7
2022-08-16T06:38:56.036Z,22.9
2022-08-16T06:39:50.468Z,22.9
2022-08-16T06:40:49.605Z,23.3
2022-08-16T06:41:49.604Z,23.2
2022-08-16T06:42:52.799Z,23.1
2022-08-16T06:43:49.600Z,23.6
2022-08-16T06:44:49.601Z,23.6
2022-08-16T06:45:49.603Z,23.5
2022-08-16T06:46:50.485Z,24
2022-08-16T06:47:54.278Z,24.4
2022-08-16T06:48:51.748Z,24.7
2022-08-16T06:49:53.877Z,24.8
2022-08-16T06:50:49.599Z,25
2022-08-16T06:51:49.590Z,25.2
2022-08-16T06:53:00.433Z,25.4
2022-08-16T06:53:49.603Z,25.5
2022-08-16T06:54:49.916Z,25.5
2022-08-16T06:55:49.618Z,25.6
2022-08-16T06:56:43.700Z,25.5
2022-08-16T06:57:49.676Z,25.5
2022-08-16T06:58:49.606Z,25.6
2022-08-16T07:00:49.707Z,25.6
2022-08-16T07:01:54.480Z,25.7
2022-08-16T07:02:51.691Z,25.7
2022-08-16T07:03:55.823Z,25.5
2022-08-16T07:04:49.621Z,25.4
2022-08-16T07:05:49.631Z,25.3
2022-08-16T07:06:49.607Z,25.4
2022-08-16T07:07:50.778Z,25.3
2022-08-16T07:08:49.604Z,25.5
2022-08-16T07:09:49.614Z,25.7
2022-08-16T07:10:49.622Z,25.7
2022-08-16T07:11:52.296Z,25.7
2022-08-16T07:13:03.515Z,25.7
2022-08-16T07:14:03.578Z,25.8
2022-08-16T07:14:49.913Z,25.8
2022-08-16T07:15:50.450Z,25.9
2022-08-16T07:16:49.615Z,25.8
2022-08-16T07:17:49.614Z,25.9
2022-08-16T07:18:58.628Z,25.9
2022-08-16T07:20:04.077Z,25.9
2022-08-16T07:20:49.654Z,26
2022-08-16T07:21:59.433Z,25.9
2022-08-16T07:22:53.140Z,25.9
2022-08-16T07:23:49.620Z,25.8
2022-08-16T07:24:49.620Z,25.9
2022-08-16T07:25:49.621Z,25.8
2022-08-16T07:26:49.641Z,25.9
2022-08-16T07:27:49.617Z,26
2022-08-16T07:28:49.654Z,26.1
2022-08-16T07:29:49.638Z,26.1
2022-08-16T07:30:49.627Z,26
2022-08-16T07:31:49.629Z,26
2022-08-16T07:32:51.509Z,26
2022-08-16T07:33:52.712Z,26
2022-08-16T07:34:49.690Z,26
2022-08-16T07:35:50.043Z,25.8
2022-08-16T07:36:57.847Z,25.9
2022-08-16T07:37:49.622Z,26
2022-08-16T07:38:50.054Z,26.1
2022-08-16T07:39:49.643Z,26.1
2022-08-16T07:41:00.975Z,26
2022-08-16T07:41:49.631Z,26.1
2022-08-16T07:42:49.823Z,26.1
2022-08-16T07:43:49.624Z,25.9
2022-08-16T07:44:50.677Z,26
2022-08-16T07:45:53.152Z,26
2022-08-16T07:46:55.426Z,26
2022-08-16T07:48:49.627Z,26.1
2022-08-16T07:49:52.819Z,26.1
2022-08-16T07:50:56.867Z,25.9
2022-08-16T07:51:49.617Z,25.8
2022-08-16T07:52:50.122Z,26.1
2022-08-16T07:53:49.642Z,26
2022-08-16T07:54:53.391Z,25.8
2022-08-16T07:55:49.625Z,26
2022-08-16T07:56:49.627Z,26.2
2022-08-16T07:57:59.942Z,26.2
2022-08-16T07:58:49.631Z,26.2
2022-08-16T07:59:49.642Z,26.2
2022-08-16T08:00:49.696Z,26.2
2022-08-16T08:01:49.646Z,26.2
2022-08-16T08:02:49.655Z,25.8
2022-08-16T08:03:49.651Z,25.6
2022-08-16T08:04:49.638Z,25.5
2022-08-16T08:05:49.633Z,25.5
2022-08-16T08:06:51.013Z,25.7
2022-08-16T08:07:49.636Z,25.9
2022-08-16T08:08:52.586Z,25.8
2022-08-16T08:09:50.178Z,26.1
2022-08-16T08:10:49.625Z,26.1
2022-08-16T08:11:59.928Z,26.2
2022-08-16T08:12:49.785Z,26.2
2022-08-16T08:13:49.630Z,26.2
2022-08-16T08:14:49.668Z,26.3
2022-08-16T08:15:52.696Z,26.3
2022-08-16T08:16:49.629Z,26.1
2022-08-16T08:17:49.642Z,26.1
2022-08-16T08:18:50.627Z,26.1
2022-08-16T08:19:53.114Z,26.2
2022-08-16T08:20:59.608Z,26.2
2022-08-16T08:21:58.858Z,26.3
2022-08-16T08:22:49.855Z,26.4
2022-08-16T08:23:49.689Z,26.4
2022-08-16T08:24:49.639Z,26.5
2022-08-16T08:25:53.517Z,26.4
2022-08-16T08:27:49.679Z,26.3
2022-08-16T08:28:49.763Z,26.1
2022-08-16T08:30:43.918Z,26.1
2022-08-16T08:31:01.182Z,26
2022-08-16T08:31:49.644Z,26.1
2022-08-16T08:33:00.216Z,26.3
2022-08-16T08:33:51.562Z,26.3
2022-08-16T08:34:49.708Z,26.6
2022-08-16T08:35:49.647Z,26.6
2022-08-16T08:36:49.668Z,26.6
2022-08-16T08:37:55.495Z,26.8
2022-08-16T08:38:49.668Z,26.7
2022-08-16T08:39:54.768Z,26.7
2022-08-16T08:40:49.659Z,26.5
2022-08-16T08:41:51.149Z,26.6
2022-08-16T08:42:49.822Z,26.2
2022-08-16T08:43:50.535Z,26
2022-08-16T08:44:49.639Z,26
2022-08-16T08:45:52.817Z,26.1
2022-08-16T08:47:00.728Z,26.3
2022-08-16T08:47:58.440Z,26.5
2022-08-16T08:48:59.887Z,26.6
2022-08-16T08:49:55.319Z,26.5
2022-08-16T08:50:50.222Z,26.6
2022-08-16T08:51:49.647Z,26.6
2022-08-16T08:52:49.771Z,26.3
2022-08-16T08:53:57.885Z,26.5
2022-08-16T08:54:50.552Z,26.5
2022-08-16T08:55:49.666Z,26.6
2022-08-16T08:56:49.658Z,26.6
2022-08-16T08:57:49.662Z,26.6
2022-08-16T08:58:53.899Z,26.5
2022-08-16T08:59:49.651Z,26.5
2022-08-16T09:00:51.305Z,26.7
2022-08-16T09:01:56.909Z,26.7
2022-08-16T09:02:52.227Z,26.7
2022-08-16T09:03:49.729Z,26.7
2022-08-16T09:04:49.651Z,26.7
2022-08-16T09:05:51.696Z,26.8
2022-08-16T09:06:49.664Z,26.8
2022-08-16T09:08:01.326Z,26.9
2022-08-16T09:08:49.691Z,27
2022-08-16T09:09:49.669Z,27
2022-08-16T09:10:49.657Z,27.1
2022-08-16T09:11:53.690Z,26.9
2022-08-16T09:12:49.906Z,26.7
2022-08-16T09:13:49.661Z,26.4
2022-08-16T09:14:51.053Z,26.5
2022-08-16T09:15:49.657Z,26.6
2022-08-16T09:17:03.467Z,26.7
2022-08-16T09:17:52.322Z,26.8
2022-08-16T09:18:55.123Z,26.8
2022-08-16T09:19:55.273Z,26.9
2022-08-16T09:20:58.508Z,27
2022-08-16T09:21:56.047Z,27.2
2022-08-16T09:22:51.308Z,27.2
2022-08-16T09:23:49.678Z,27.3
2022-08-16T09:24:53.541Z,27.4
2022-08-16T09:25:49.660Z,27.3
2022-08-16T09:26:52.564Z,27.3
2022-08-16T09:27:56.781Z,27.4
2022-08-16T09:29:14.836Z,27.4
2022-08-16T09:29:59.788Z,27.5
2022-08-16T09:30:49.658Z,27.5
2022-08-16T09:31:53.459Z,27.5
2022-08-16T09:32:49.920Z,27.6
2022-08-16T09:33:51.990Z,27.7
2022-08-16T09:34:49.680Z,27.7
2022-08-16T09:35:53.216Z,27.8
2022-08-16T09:36:49.672Z,27.7
2022-08-16T09:38:00.426Z,27.7
2022-08-16T09:38:49.695Z,27.9
2022-08-16T09:39:50.403Z,27.9
2022-08-16T09:40:49.736Z,27.9
2022-08-16T09:41:53.802Z,27.9
2022-08-16T09:42:56.532Z,27.9
2022-08-16T09:43:59.178Z,28
2022-08-16T09:45:11.421Z,28
2022-08-16T09:45:49.677Z,28
2022-08-16T09:46:50.098Z,28
2022-08-16T09:47:56.413Z,28
2022-08-16T09:48:51.249Z,28.1
2022-08-16T09:49:51.216Z,28
2022-08-16T09:50:49.681Z,28
2022-08-16T09:51:49.742Z,28.1
2022-08-16T09:52:49.895Z,28.1
2022-08-16T09:53:49.687Z,28
2022-08-16T09:54:49.737Z,28
2022-08-16T09:55:50.060Z,28
2022-08-16T09:56:52.715Z,28
2022-08-16T09:57:53.048Z,28
2022-08-16T09:59:04.893Z,28.2
2022-08-16T09:59:56.147Z,28.1
2022-08-16T10:00:49.684Z,28.1
2022-08-16T10:01:49.926Z,28.1
2022-08-16T10:02:49.779Z,28.3
2022-08-16T10:04:02.217Z,28.4
2022-08-16T10:04:54.474Z,28.5
2022-08-16T10:05:49.681Z,28.4
2022-08-16T10:06:49.685Z,28.4
2022-08-16T10:07:50.048Z,28.3
2022-08-16T10:09:05.397Z,28.3
2022-08-16T10:09:54.697Z,28.1
2022-08-16T10:10:49.678Z,28.2
2022-08-16T10:11:50.477Z,28.2
2022-08-16T10:12:55.905Z,28.2
2022-08-16T10:13:49.703Z,28.3
2022-08-16T10:14:49.687Z,28.3
2022-08-16T10:15:55.739Z,28.4
2022-08-16T10:16:49.694Z,28.5
2022-08-16T10:18:00.735Z,28.8
2022-08-16T10:19:02.113Z,28.7
2022-08-16T10:19:50.359Z,28.7
2022-08-16T10:20:49.695Z,28.7
2022-08-16T10:21:56.290Z,28.5
2022-08-16T10:22:52.965Z,28.3
2022-08-16T10:23:49.701Z,28.1
2022-08-16T10:24:55.648Z,28.1
2022-08-16T10:27:03.784Z,28.3
2022-08-16T10:27:20.232Z,28.2
2022-08-16T10:28:50.218Z,28.3
2022-08-16T10:30:00.708Z,28.4
2022-08-16T10:30:58.633Z,28.4
2022-08-16T10:31:53.862Z,28.4
2022-08-16T10:32:49.711Z,28.4
2022-08-16T10:33:49.719Z,28.5
2022-08-16T10:34:51.405Z,28.5
2022-08-16T10:35:49.691Z,28.5
2022-08-16T10:36:54.097Z,28.5
2022-08-16T10:37:49.839Z,28.6
2022-08-16T10:38:49.709Z,28.6
2022-08-16T10:39:49.745Z,28.7
2022-08-16T10:40:49.701Z,28.7
2022-08-16T10:41:49.696Z,28.8
2022-08-16T10:42:50.413Z,28.7
2022-08-16T10:43:50.223Z,28.7
2022-08-16T10:44:54.946Z,28.6
2022-08-16T10:46:00.747Z,28.7
2022-08-16T10:46:49.701Z,28.8
2022-08-16T10:48:02.864Z,28.9
2022-08-16T10:48:49.714Z,28.9
2022-08-16T10:49:49.689Z,29
2022-08-16T10:50:49.721Z,29
2022-08-16T10:52:02.346Z,29
2022-08-16T10:52:50.680Z,29.1
2022-08-16T10:53:49.713Z,29
2022-08-16T10:55:57.530Z,28.6
2022-08-16T10:56:55.511Z,28.5
2022-08-16T10:57:49.866Z,28.6
2022-08-16T10:58:49.739Z,28.4
2022-08-16T10:59:57.648Z,28.3
2022-08-16T11:00:53.100Z,28.3
2022-08-16T11:02:57.880Z,28.4
2022-08-16T11:03:54.093Z,28.2
2022-08-16T11:05:06.251Z,28.3
2022-08-16T11:06:06.683Z,28.3
2022-08-16T11:07:52.324Z,28.3
2022-08-16T11:09:21.056Z,28.5
2022-08-16T11:09:49.703Z,28.5
2022-08-16T11:11:12.940Z,28.8
2022-08-16T11:12:15.032Z,29
2022-08-16T11:12:52.961Z,28.7
2022-08-16T11:13:58.834Z,28.6
2022-08-16T11:15:19.440Z,28.8
2022-08-16T11:15:55.762Z,28.7
2022-08-16T11:17:10.952Z,28.8
2022-08-16T11:18:36.562Z,28.9
2022-08-16T11:19:06.441Z,29
2022-08-16T11:20:50.573Z,29.2
2022-08-16T11:22:49.714Z,29.3
2022-08-16T11:23:57.957Z,29.4
2022-08-16T11:25:11.790Z,29.4
2022-08-16T11:26:07.093Z,29.5
2022-08-16T11:27:18.624Z,29.6
2022-08-16T11:27:50.146Z,29.7
2022-08-16T11:29:15.273Z,29.7
2022-08-16T11:29:49.718Z,29.7
2022-08-16T11:30:54.850Z,29.8
2022-08-16T11:31:53.890Z,29.8
2022-08-16T11:32:49.847Z,29.8
2022-08-16T11:33:53.288Z,29.9
2022-08-16T11:35:13.954Z,29.7
2022-08-16T11:36:57.246Z,29.7
2022-08-16T11:38:06.141Z,29.7
2022-08-16T11:38:57.671Z,29.6
2022-08-16T11:39:49.752Z,29.3
2022-08-16T11:40:52.207Z,29.2
2022-08-16T11:41:49.718Z,29
2022-08-16T11:42:49.726Z,28.9
2022-08-16T11:43:49.722Z,28.9
2022-08-16T11:44:56.272Z,29
2022-08-16T11:45:53.901Z,29
2022-08-16T11:46:49.731Z,29
2022-08-16T11:47:50.039Z,29.1
2022-08-16T11:48:49.744Z,29.3
2022-08-16T11:49:49.723Z,29.4
2022-08-16T11:50:49.718Z,29.5
2022-08-16T11:51:49.727Z,29.7
2022-08-16T11:52:49.727Z,29.9
2022-08-16T11:53:49.755Z,30
2022-08-16T11:54:56.923Z,30
2022-08-16T11:55:50.505Z,30.2
2022-08-16T11:56:56.637Z,30.2
2022-08-16T11:57:49.894Z,30.2
2022-08-16T11:58:51.524Z,30.1
2022-08-16T11:59:49.736Z,30.3
2022-08-16T12:00:51.295Z,30.2
2022-08-16T12:01:58.911Z,30.1
2022-08-16T12:02:49.725Z,30.1
2022-08-16T12:03:49.800Z,30.2
2022-08-16T12:04:51.983Z,30.2
2022-08-16T12:05:51.947Z,30.2
2022-08-16T12:06:49.960Z,30.3
2022-08-16T12:07:49.855Z,30.3
2022-08-16T12:08:49.749Z,30.4
2022-08-16T12:09:49.741Z,30.4
2022-08-16T12:10:49.741Z,30.4
2022-08-16T12:11:52.680Z,30.5
2022-08-16T12:12:49.813Z,30.6
2022-08-16T12:13:49.750Z,30.6
2022-08-16T12:14:52.206Z,30.6
2022-08-16T12:15:49.745Z,30.7
2022-08-16T12:16:55.786Z,30.7
2022-08-16T12:17:50.165Z,30.7
2022-08-16T12:18:49.934Z,30.7
2022-08-16T12:19:49.813Z,30.8
2022-08-16T12:20:49.735Z,30.8
2022-08-16T12:21:59.244Z,30.8
2022-08-16T12:22:49.898Z,31
2022-08-16T12:23:49.768Z,30.9
2022-08-16T12:24:52.000Z,30.7
2022-08-16T12:25:49.750Z,30.6
2022-08-16T12:26:49.757Z,30.6
2022-08-16T12:27:49.983Z,30.4
2022-08-16T12:28:56.111Z,30.4
2022-08-16T12:29:49.737Z,30.4
2022-08-16T12:30:49.750Z,30.4
2022-08-16T12:31:59.367Z,30.5
2022-08-16T12:32:51.557Z,30.6
2022-08-16T12:33:50.724Z,30.5
2022-08-16T12:34:52.834Z,30.6
2022-08-16T12:35:49.747Z,30.7
2022-08-16T12:36:49.764Z,30.7
2022-08-16T12:37:49.745Z,30.9
2022-08-16T12:39:51.214Z,30.9
2022-08-16T12:40:49.781Z,31
2022-08-16T12:41:49.814Z,31
2022-08-16T12:42:52.576Z,31
2022-08-16T12:43:49.782Z,31.1
2022-08-16T12:44:50.354Z,31
2022-08-16T12:45:49.744Z,31.1
2022-08-16T12:46:49.743Z,31.1
2022-08-16T12:48:49.759Z,31.1
2022-08-16T12:49:49.744Z,31
2022-08-16T12:50:50.283Z,31.1
2022-08-16T12:51:57.710Z,31.1
2022-08-16T12:52:52.432Z,31.2
2022-08-16T12:53:49.765Z,31.1
2022-08-16T12:54:54.951Z,31.1
2022-08-16T12:55:49.763Z,31
2022-08-16T12:56:50.431Z,31
2022-08-16T12:57:57.943Z,31
2022-08-16T12:58:51.755Z,31
2022-08-16T12:59:49.755Z,31
2022-08-16T13:00:49.803Z,30.9
2022-08-16T13:01:50.215Z,30.8
2022-08-16T13:02:50.198Z,30.8
2022-08-16T13:03:50.218Z,30.8
2022-08-16T13:04:49.764Z,30.9
2022-08-16T13:05:55.240Z,30.9
2022-08-16T13:06:49.877Z,30.8
2022-08-16T13:07:51.841Z,30.8
2022-08-16T13:08:49.748Z,30.8
2022-08-16T13:09:49.767Z,30.9
2022-08-16T13:10:52.568Z,30.9
2022-08-16T13:11:57.899Z,30.9
2022-08-16T13:12:49.779Z,31
2022-08-16T13:13:54.771Z,31.1
2022-08-16T13:14:49.853Z,31.1
2022-08-16T13:15:57.215Z,31.1
2022-08-16T13:16:49.766Z,31.2
2022-08-16T13:17:50.352Z,31.2
2022-08-16T13:18:52.638Z,31.4
2022-08-16T13:20:19.294Z,31.3
2022-08-16T13:20:49.801Z,31.3
2022-08-16T13:21:49.989Z,31.3
2022-08-16T13:22:49.768Z,31.2
2022-08-16T13:23:49.759Z,31.1
2022-08-16T13:24:49.777Z,31.2
2022-08-16T13:25:49.770Z,31.3
2022-08-16T13:26:53.338Z,31.2
2022-08-16T13:28:02.495Z,31.3
2022-08-16T13:28:49.777Z,31.2
2022-08-16T13:29:57.347Z,31.2
2022-08-16T13:30:49.778Z,31.1
2022-08-16T13:31:49.779Z,31
2022-08-16T13:32:52.090Z,30.9
2022-08-16T13:33:49.780Z,30.9
2022-08-16T13:34:49.935Z,30.9
2022-08-16T13:35:55.643Z,30.8
2022-08-16T13:36:50.074Z,30.9
2022-08-16T13:37:49.991Z,30.9
2022-08-16T13:38:49.784Z,30.9
2022-08-16T13:39:49.826Z,30.9
2022-08-16T13:40:49.767Z,30.9
2022-08-16T13:41:53.616Z,30.9
2022-08-16T13:42:49.800Z,30.9
2022-08-16T13:43:57.494Z,30.9